Brauna, Brazil
Current Conditions -  °F | °C
As of 8:00 PM on Friday 19 Dec 2014 (Local Time) from SBSR Reporting Station
Clear Clear  
Wind Chill: 88°   Ceiling: Unl
Heat Index: 88°   Visibility: 6mi
Dew Point: 61°   Wind: 0mph
Humidity: 40%   Direction: NA
Pressure: 29.77"   Gusts: NA
Location:  21.5°S, 50.32°W
Report Text: SBSR 192200Z 00000KT CAVOK 31/16 Q1008
Loading
Personal Weather Stations






























Interactive Weather Map New forecast layout! Learn more

10-Day Weather Forecast

Advertisements
Track Severe Weather on mobile